Quenemo, Kansas
Current Conditions -  °F | °C
As of 9:53 PM on Saturday 22 Nov 2014 (Local Time) from KFOE Reporting Station
Overcast Overcast  
Wind Chill: 56°   Ceiling: 1100
Heat Index: 56°   Visibility: 10mi
Dew Point: 51°   Wind: 14mph
Humidity: 84%   Direction: 180°S
Pressure: 29.68"   Gusts: 28mph
Location:  38.58°N, 95.53°W
Report Text: KFOE 230353Z 18012G24KT 10SM OVC011 13/11 A2968 RMK AO2 SLP047 T01330106
Loading
Personal Weather Stations






























Interactive Weather Map New forecast layout! Learn more

10-Day Weather Forecast

Advertisements
Track Severe Weather on mobile